TAF Text Data
IDs:
Format:
Raw Decoded Include METAR

Data at: 1308 UTC 17 Dec 2018

KFST 171253Z AUTO 24009KT 10SM OVC100 07/M01 A3026 RMK AO2 SLP228 T00721011

KFST 171120Z 1712/1812 27005KT P6SM BKN150
  FM172100 10008KT P6SM SCT200